createdAt,value
2019-04-29T00:01:26.320Z,8.10
2019-04-29T00:03:58.764Z,9.20
2019-04-29T00:06:29.098Z,8.73
2019-04-29T00:08:58.090Z,9.25
2019-04-29T00:11:26.643Z,9.18
2019-04-29T00:13:57.245Z,8.50
2019-04-29T00:16:41.257Z,8.83
2019-04-29T00:19:21.786Z,8.28
2019-04-29T00:21:50.357Z,8.58
2019-04-29T00:24:20.577Z,8.20
2019-04-29T00:26:51.269Z,7.90
2019-04-29T00:29:19.837Z,8.30
2019-04-29T00:31:48.392Z,8.83
2019-04-29T00:34:16.979Z,8.23
2019-04-29T00:36:57.990Z,8.68
2019-04-29T00:39:59.527Z,8.05
2019-04-29T00:42:40.619Z,8.20
2019-04-29T00:45:09.122Z,9.13
2019-04-29T00:47:39.696Z,11.60
2019-04-29T00:50:08.454Z,12.45
2019-04-29T00:52:41.743Z,13.08
2019-04-29T00:55:14.591Z,12.05
2019-04-29T00:57:43.482Z,12.95
2019-04-29T01:00:14.090Z,13.50
2019-04-29T01:02:42.663Z,13.30
2019-04-29T01:05:11.523Z,13.15
2019-04-29T01:07:40.155Z,11.97
2019-04-29T01:10:08.963Z,11.35
2019-04-29T01:12:38.090Z,10.15
2019-04-29T01:15:07.075Z,9.73
2019-04-29T01:17:35.820Z,9.33
2019-04-29T01:20:06.805Z,9.35
2019-04-29T01:22:36.955Z,9.18
2019-04-29T01:25:08.421Z,8.78
2019-04-29T01:27:42.682Z,9.60
2019-04-29T01:30:33.635Z,9.23
2019-04-29T01:33:04.678Z,8.80
2019-04-29T01:35:36.554Z,9.08
2019-04-29T01:38:05.563Z,9.73
2019-04-29T01:40:48.089Z,10.82
2019-04-29T01:43:18.269Z,11.20
2019-04-29T01:45:46.836Z,11.88
2019-04-29T01:48:15.440Z,12.95
2019-04-29T01:50:44.339Z,13.53
2019-04-29T01:53:16.361Z,15.80
2019-04-29T01:55:46.303Z,16.37
2019-04-29T01:58:15.052Z,19.37
2019-04-29T02:00:43.994Z,14.85
2019-04-29T02:03:13.309Z,13.72
2019-04-29T02:05:41.942Z,11.80
2019-04-29T02:08:10.884Z,14.20
2019-04-29T02:10:39.806Z,12.43
2019-04-29T02:13:08.668Z,12.68
2019-04-29T02:15:37.409Z,20.20
2019-04-29T02:18:06.578Z,14.83
2019-04-29T02:20:35.133Z,16.77
2019-04-29T02:23:15.463Z,20.52
2019-04-29T02:25:45.198Z,14.13
2019-04-29T02:28:14.732Z,17.20
2019-04-29T02:30:47.950Z,23.12
2019-04-29T02:33:18.525Z,15.18
2019-04-29T02:35:47.279Z,14.35
2019-04-29T02:38:29.888Z,13.65
2019-04-29T02:41:06.750Z,14.13
2019-04-29T02:43:37.708Z,11.45
2019-04-29T02:46:06.260Z,9.70
2019-04-29T02:48:35.220Z,9.18
2019-04-29T02:51:03.804Z,8.48
2019-04-29T02:53:35.387Z,12.95
2019-04-29T02:56:05.880Z,12.07
2019-04-29T02:58:42.227Z,10.43
2019-04-29T03:01:35.068Z,10.55
2019-04-29T03:04:10.141Z,14.28
2019-04-29T03:06:38.893Z,13.22
2019-04-29T03:09:11.772Z,13.13
2019-04-29T03:11:40.741Z,12.88
2019-04-29T03:14:10.683Z,14.80
2019-04-29T03:16:40.921Z,13.08
2019-04-29T03:19:16.170Z,12.80
2019-04-29T03:21:57.330Z,12.33
2019-04-29T03:24:26.295Z,12.90
2019-04-29T03:26:56.244Z,13.60
2019-04-29T03:29:24.909Z,13.13
2019-04-29T03:31:55.104Z,14.13
2019-04-29T03:34:23.875Z,14.10
2019-04-29T03:36:53.059Z,12.63
2019-04-29T03:39:22.093Z,11.40
2019-04-29T03:41:50.654Z,13.18
2019-04-29T03:44:21.088Z,13.43
2019-04-29T03:46:54.895Z,10.82
2019-04-29T03:49:23.904Z,12.73
2019-04-29T03:51:53.933Z,10.75
2019-04-29T03:54:25.690Z,11.73
2019-04-29T03:56:54.448Z,12.25
2019-04-29T03:59:25.805Z,11.95
2019-04-29T04:02:18.805Z,9.73
2019-04-29T04:05:04.424Z,8.93
2019-04-29T04:07:40.240Z,9.70
2019-04-29T04:10:09.234Z,10.15
2019-04-29T04:12:38.308Z,12.35
2019-04-29T04:15:11.539Z,13.75
2019-04-29T04:18:02.346Z,13.78
2019-04-29T04:20:31.008Z,12.98
2019-04-29T04:23:01.835Z,12.25
2019-04-29T04:25:30.413Z,11.57
2019-04-29T04:27:59.161Z,10.25
2019-04-29T04:30:34.026Z,11.33
2019-04-29T04:33:02.603Z,12.80
2019-04-29T04:35:31.566Z,10.78
2019-04-29T04:38:00.155Z,11.00
2019-04-29T04:40:35.994Z,11.05
2019-04-29T04:43:04.934Z,11.68
2019-04-29T04:45:35.068Z,10.23
2019-04-29T04:48:03.941Z,11.90
2019-04-29T04:50:32.687Z,10.38
2019-04-29T04:53:01.830Z,11.45
2019-04-29T04:55:32.908Z,11.28
2019-04-29T04:58:01.916Z,12.85
2019-04-29T05:00:35.567Z,13.83
2019-04-29T05:06:14.003Z,10.75
2019-04-29T05:09:26.766Z,11.50
2019-04-29T05:12:14.464Z,9.38
2019-04-29T05:15:30.293Z,10.18
2019-04-29T05:18:30.643Z,9.40
2019-04-29T05:21:43.662Z,10.05
2019-04-29T05:24:45.720Z,10.10
2019-04-29T05:27:53.222Z,10.63
2019-04-29T05:30:22.188Z,9.98
2019-04-29T05:32:50.748Z,10.85
2019-04-29T05:35:24.908Z,10.85
2019-04-29T05:38:14.162Z,11.08
2019-04-29T05:40:45.322Z,11.43
2019-04-29T05:43:16.175Z,10.43
2019-04-29T05:45:58.284Z,11.57
2019-04-29T05:48:27.551Z,10.95
2019-04-29T05:51:16.841Z,10.45
2019-04-29T05:53:54.739Z,12.20
2019-04-29T05:56:18.568Z,10.82
2019-04-29T05:58:47.457Z,10.60
2019-04-29T06:01:21.238Z,11.05
2019-04-29T06:03:53.341Z,12.30
2019-04-29T06:06:24.086Z,12.88
2019-04-29T06:08:56.283Z,18.48
2019-04-29T06:11:25.192Z,18.37
2019-04-29T06:13:57.172Z,17.90
2019-04-29T06:16:26.282Z,19.00
2019-04-29T06:19:01.605Z,20.10
2019-04-29T06:21:30.191Z,22.62
2019-04-29T06:24:04.516Z,21.62
2019-04-29T06:26:32.527Z,21.00
2019-04-29T06:29:16.813Z,19.32
2019-04-29T06:31:47.077Z,19.07
2019-04-29T06:34:19.043Z,18.07
2019-04-29T06:36:48.930Z,17.23
2019-04-29T06:39:19.859Z,16.37
2019-04-29T06:41:48.447Z,18.30
2019-04-29T06:44:21.761Z,20.15
2019-04-29T06:46:54.595Z,33.63
2019-04-29T06:49:26.485Z,33.85
2019-04-29T06:51:55.250Z,24.10
2019-04-29T06:54:28.525Z,22.17
2019-04-29T06:56:58.637Z,21.87
2019-04-29T06:59:27.206Z,19.12
2019-04-29T07:01:56.107Z,19.07
2019-04-29T07:04:26.467Z,17.07
2019-04-29T07:07:00.156Z,15.72
2019-04-29T07:12:08.228Z,21.52
2019-04-29T07:14:38.692Z,19.40
2019-04-29T07:17:09.599Z,18.62
2019-04-29T07:19:38.822Z,16.80
2019-04-29T07:22:08.951Z,16.95
2019-04-29T07:24:39.310Z,17.60
2019-04-29T07:27:08.599Z,18.85
2019-04-29T07:29:38.866Z,18.20
2019-04-29T07:32:09.398Z,18.00
2019-04-29T07:34:39.555Z,19.15
2019-04-29T07:37:10.456Z,19.92
2019-04-29T07:39:42.341Z,22.87
2019-04-29T07:42:14.433Z,20.35
2019-04-29T07:45:03.407Z,17.95
2019-04-29T07:47:32.449Z,18.67
2019-04-29T07:50:01.034Z,18.62
2019-04-29T07:52:31.252Z,19.02
2019-04-29T07:55:01.965Z,16.85
2019-04-29T07:57:31.023Z,17.15
2019-04-29T08:00:02.776Z,16.55
2019-04-29T08:02:32.615Z,16.20
2019-04-29T08:05:01.157Z,16.45
2019-04-29T08:07:30.087Z,16.80
2019-04-29T08:10:01.883Z,14.83
2019-04-29T08:12:30.798Z,16.12
2019-04-29T08:15:07.610Z,14.38
2019-04-29T08:17:31.444Z,15.35
2019-04-29T08:20:05.144Z,14.78
2019-04-29T08:25:04.863Z,13.30
2019-04-29T08:27:40.691Z,15.28
2019-04-29T08:30:06.760Z,14.13
2019-04-29T08:32:38.068Z,13.68
2019-04-29T08:35:06.710Z,12.45
2019-04-29T08:37:36.043Z,12.33
2019-04-29T08:40:15.907Z,12.68
2019-04-29T08:42:41.372Z,11.33
2019-04-29T08:45:21.083Z,11.88
2019-04-29T08:47:51.339Z,10.93
2019-04-29T08:50:23.023Z,10.40
2019-04-29T08:52:53.264Z,9.58
2019-04-29T08:55:22.205Z,9.98
2019-04-29T08:57:52.355Z,9.98
2019-04-29T09:00:21.630Z,9.95
2019-04-29T09:02:50.818Z,10.40
2019-04-29T09:05:19.378Z,8.80
2019-04-29T09:07:52.516Z,8.75
2019-04-29T09:10:19.930Z,8.45
2019-04-29T09:12:48.486Z,9.23
2019-04-29T09:15:17.057Z,8.10
2019-04-29T09:17:47.793Z,7.62
2019-04-29T09:20:17.931Z,6.90
2019-04-29T09:22:52.197Z,6.87
2019-04-29T09:25:36.286Z,6.65
2019-04-29T09:28:08.642Z,6.47
2019-04-29T09:30:38.804Z,7.17
2019-04-29T09:33:08.782Z,6.58
2019-04-29T09:35:38.695Z,6.58
2019-04-29T09:38:09.790Z,6.25
2019-04-29T09:40:45.919Z,6.20
2019-04-29T09:43:27.083Z,6.55
2019-04-29T09:46:20.101Z,6.45
2019-04-29T09:48:50.336Z,6.70
2019-04-29T09:51:22.742Z,5.80
2019-04-29T09:53:55.065Z,4.80
2019-04-29T09:56:25.082Z,6.05
2019-04-29T09:59:12.856Z,5.35
2019-04-29T10:01:50.473Z,5.42
2019-04-29T10:04:32.925Z,5.62
2019-04-29T10:07:01.809Z,5.30
2019-04-29T10:09:30.382Z,6.25
2019-04-29T10:11:59.296Z,5.45
2019-04-29T10:14:28.375Z,5.37
2019-04-29T10:17:37.489Z,4.92
2019-04-29T10:20:13.918Z,5.10
2019-04-29T10:22:44.633Z,5.35
2019-04-29T10:25:14.671Z,4.72
2019-04-29T10:27:44.788Z,5.25
2019-04-29T10:30:13.436Z,4.92
2019-04-29T10:32:44.247Z,5.08
2019-04-29T10:35:13.093Z,5.53
2019-04-29T10:37:44.084Z,5.35
2019-04-29T10:40:31.654Z,5.58
2019-04-29T10:43:19.233Z,5.17
2019-04-29T10:46:05.642Z,5.92
2019-04-29T10:48:40.800Z,7.08
2019-04-29T10:51:10.730Z,6.97
2019-04-29T10:53:40.644Z,6.22
2019-04-29T10:56:14.215Z,7.12
2019-04-29T10:58:43.159Z,7.17
2019-04-29T11:02:08.991Z,6.72
2019-04-29T11:04:36.112Z,6.90
2019-04-29T11:07:18.730Z,7.30
2019-04-29T11:09:52.567Z,8.90
2019-04-29T11:12:21.274Z,8.63
2019-04-29T11:14:49.858Z,9.55
2019-04-29T11:17:19.322Z,10.68
2019-04-29T11:19:47.871Z,10.18
2019-04-29T11:22:21.712Z,11.43
2019-04-29T11:25:20.237Z,11.60
2019-04-29T11:27:56.022Z,11.48
2019-04-29T11:30:27.793Z,13.18
2019-04-29T11:33:07.285Z,12.55
2019-04-29T11:35:41.069Z,11.93
2019-04-29T11:38:11.515Z,12.20
2019-04-29T11:40:44.238Z,11.38
2019-04-29T11:43:15.602Z,12.13
2019-04-29T11:45:43.527Z,12.82
2019-04-29T11:48:12.346Z,12.15
2019-04-29T11:50:50.187Z,13.13
2019-04-29T11:53:19.678Z,12.00
2019-04-29T11:55:48.300Z,12.88
2019-04-29T11:58:25.276Z,13.80
2019-04-29T12:01:37.747Z,13.70
2019-04-29T12:03:58.335Z,12.85
2019-04-29T12:06:27.879Z,13.93
2019-04-29T12:08:56.623Z,14.55
2019-04-29T12:11:28.642Z,14.15
2019-04-29T12:14:14.555Z,14.35
2019-04-29T12:17:01.111Z,13.72
2019-04-29T12:19:32.365Z,14.23
2019-04-29T12:22:04.921Z,15.43
2019-04-29T12:24:32.255Z,12.63
2019-04-29T12:27:01.004Z,14.03
2019-04-29T12:29:29.867Z,14.18
2019-04-29T12:32:20.595Z,13.53
2019-04-29T12:35:12.189Z,14.78
2019-04-29T12:38:12.128Z,15.10
2019-04-29T12:40:58.574Z,15.75
2019-04-29T12:43:40.570Z,15.32
2019-04-29T12:46:22.655Z,16.52
2019-04-29T12:48:51.853Z,16.20
2019-04-29T12:51:21.172Z,17.20
2019-04-29T12:53:49.910Z,16.32
2019-04-29T12:56:26.009Z,15.90
2019-04-29T12:58:55.283Z,17.35
2019-04-29T13:01:51.360Z,16.67
2019-04-29T13:04:32.020Z,16.80
2019-04-29T13:07:14.378Z,17.90
2019-04-29T13:09:44.799Z,16.87
2019-04-29T13:12:19.705Z,17.23
2019-04-29T13:15:02.602Z,17.35
2019-04-29T13:17:36.819Z,16.48
2019-04-29T13:20:11.733Z,18.00
2019-04-29T13:22:39.822Z,15.85
2019-04-29T13:25:10.040Z,16.20
2019-04-29T13:27:38.765Z,14.47
2019-04-29T13:30:15.075Z,16.35
2019-04-29T13:32:40.579Z,15.53
2019-04-29T13:35:10.429Z,16.15
2019-04-29T13:37:39.879Z,15.53
2019-04-29T14:07:55.750Z,17.25
2019-04-29T14:10:24.475Z,17.80
2019-04-29T14:13:09.125Z,16.93
2019-04-29T14:15:33.846Z,17.32
2019-04-29T14:18:02.549Z,17.62
2019-04-29T14:20:32.658Z,17.92
2019-04-29T14:23:02.870Z,16.37
2019-04-29T14:25:31.416Z,18.25
2019-04-29T14:28:00.447Z,18.52
2019-04-29T14:30:38.385Z,18.52
2019-04-29T14:33:02.146Z,16.87
2019-04-29T14:35:36.993Z,16.40
2019-04-29T14:38:06.279Z,16.02
2019-04-29T14:40:38.968Z,15.85
2019-04-29T14:43:31.329Z,16.62
2019-04-29T14:46:16.293Z,15.78
2019-04-29T14:48:59.581Z,17.27
2019-04-29T14:51:34.101Z,15.13
2019-04-29T14:54:01.401Z,14.93
2019-04-29T14:56:30.024Z,15.80
2019-04-29T14:59:06.682Z,13.58
2019-04-29T15:01:48.563Z,14.00
2019-04-29T15:04:23.377Z,14.70
2019-04-29T15:06:53.321Z,13.98
2019-04-29T15:09:24.006Z,13.93
2019-04-29T15:12:00.542Z,15.08
2019-04-29T15:14:48.687Z,14.60
2019-04-29T15:17:40.362Z,15.32
2019-04-29T15:20:15.463Z,14.55
2019-04-29T15:22:44.036Z,14.87
2019-04-29T15:25:16.794Z,16.23
2019-04-29T15:27:48.277Z,17.23
2019-04-29T15:30:18.863Z,16.05
2019-04-29T15:32:47.445Z,17.65
2019-04-29T15:35:19.862Z,17.30
2019-04-29T15:37:46.317Z,17.35
2019-04-29T15:40:14.895Z,18.02
2019-04-29T15:42:48.695Z,16.60
2019-04-29T15:45:14.370Z,16.90
2019-04-29T15:47:45.738Z,18.15
2019-04-29T15:50:18.896Z,17.67
2019-04-29T15:52:44.228Z,18.30
2019-04-29T15:55:12.782Z,20.23
2019-04-29T15:57:49.515Z,20.92
2019-04-29T16:00:22.170Z,21.23
2019-04-29T16:02:46.021Z,22.77
2019-04-29T16:05:31.195Z,22.62
2019-04-29T16:08:32.291Z,21.82
2019-04-29T16:11:18.530Z,21.97
2019-04-29T16:14:08.089Z,22.65
2019-04-29T16:16:19.631Z,22.05
2019-04-29T16:18:48.375Z,22.90
2019-04-29T16:21:17.310Z,23.35
2019-04-29T16:23:45.910Z,23.40
2019-04-29T16:26:16.566Z,21.45
2019-04-29T16:28:48.296Z,21.75
2019-04-29T16:31:16.863Z,20.52
2019-04-29T16:33:54.267Z,20.80
2019-04-29T16:36:17.308Z,20.95
2019-04-29T16:38:46.349Z,21.35
2019-04-29T16:41:51.144Z,20.50
2019-04-29T16:44:34.828Z,21.50
2019-04-29T16:46:51.022Z,20.45
2019-04-29T16:49:20.563Z,21.93
2019-04-29T16:51:53.706Z,21.70
2019-04-29T16:54:27.981Z,22.55
2019-04-29T16:56:51.970Z,22.77
2019-04-29T16:59:21.935Z,23.25
2019-04-29T17:01:50.648Z,22.48
2019-04-29T17:04:21.493Z,21.73
2019-04-29T17:07:11.120Z,22.73
2019-04-29T17:09:38.534Z,22.95
2019-04-29T17:12:07.644Z,22.13
2019-04-29T17:15:01.129Z,23.32
2019-04-29T17:17:11.181Z,22.42
2019-04-29T17:19:48.307Z,22.30
2019-04-29T17:22:27.464Z,22.65
2019-04-29T17:24:51.511Z,22.75
2019-04-29T17:27:44.480Z,23.05
2019-04-29T17:30:38.335Z,21.77
2019-04-29T17:33:25.696Z,21.68
2019-04-29T17:35:49.342Z,23.90
2019-04-29T17:38:18.168Z,25.02
2019-04-29T17:40:51.048Z,23.35
2019-04-29T17:43:42.921Z,24.98
2019-04-29T17:49:18.243Z,26.23
2019-04-29T17:51:46.817Z,25.05
2019-04-29T17:54:18.762Z,24.55
2019-04-29T17:57:10.235Z,25.45
2019-04-29T17:59:48.919Z,25.95
2019-04-29T18:02:39.471Z,24.32
2019-04-29T18:05:52.173Z,25.88
2019-04-29T18:08:12.454Z,27.20
2019-04-29T18:10:45.806Z,26.37
2019-04-29T18:13:18.867Z,26.97
2019-04-29T18:16:00.017Z,26.93
2019-04-29T18:18:24.380Z,27.52
2019-04-29T18:21:30.130Z,26.82
2019-04-29T18:24:12.784Z,27.07
2019-04-29T18:26:52.707Z,29.77
2019-04-29T18:29:21.584Z,30.27
2019-04-29T18:31:50.352Z,29.25
2019-04-29T18:34:19.532Z,29.60
2019-04-29T18:36:49.973Z,30.72
2019-04-29T18:39:25.075Z,30.77
2019-04-29T18:41:58.823Z,29.80
2019-04-29T18:44:30.125Z,30.20
2019-04-29T18:46:58.842Z,30.43
2019-04-29T18:49:27.771Z,30.90
2019-04-29T18:52:01.604Z,31.27
2019-04-29T18:54:29.782Z,32.17
2019-04-29T18:56:59.745Z,31.52
2019-04-29T18:59:33.268Z,30.72
2019-04-29T19:04:56.536Z,30.72
2019-04-29T19:07:31.853Z,29.92
2019-04-29T19:10:01.215Z,30.20
2019-04-29T19:12:31.747Z,32.35
2019-04-29T19:15:04.928Z,30.30
2019-04-29T19:17:38.805Z,29.12
2019-04-29T19:20:08.643Z,32.05
2019-04-29T19:22:39.935Z,30.88
2019-04-29T19:25:08.673Z,31.77
2019-04-29T19:27:39.964Z,32.00
2019-04-29T19:30:09.144Z,32.28
2019-04-29T19:32:39.766Z,32.83
2019-04-29T19:35:12.796Z,34.45
2019-04-29T19:37:41.761Z,36.15
2019-04-29T19:40:10.920Z,33.80
2019-04-29T19:42:40.984Z,34.25
2019-04-29T19:45:13.306Z,35.25
2019-04-29T19:47:41.249Z,35.30
2019-04-29T19:50:16.620Z,35.73
2019-04-29T19:52:47.209Z,36.75
2019-04-29T19:55:18.159Z,36.73
2019-04-29T19:57:52.271Z,35.23
2019-04-29T20:02:53.489Z,35.68
2019-04-29T20:05:32.788Z,37.63
2019-04-29T20:08:00.416Z,37.58
2019-04-29T20:10:32.113Z,36.42
2019-04-29T20:13:03.462Z,35.85
2019-04-29T20:15:37.296Z,37.23
2019-04-29T20:18:26.009Z,34.65
2019-04-29T20:21:08.956Z,34.43
2019-04-29T20:23:39.216Z,37.48
2019-04-29T20:26:15.693Z,37.95
2019-04-29T20:28:39.315Z,38.92
2019-04-29T20:31:17.921Z,37.48
2019-04-29T20:33:42.196Z,38.35
2019-04-29T20:36:13.003Z,38.55
2019-04-29T20:38:45.489Z,38.33
2019-04-29T20:41:21.002Z,40.03
2019-04-29T20:43:51.817Z,39.38
2019-04-29T20:46:22.189Z,39.75
2019-04-29T20:48:55.829Z,42.60
2019-04-29T20:51:28.445Z,40.03
2019-04-29T20:54:15.927Z,41.37
2019-04-29T20:56:46.991Z,40.95
2019-04-29T20:59:16.217Z,40.65
2019-04-29T21:01:48.927Z,43.63
2019-04-29T21:04:31.266Z,42.93
2019-04-29T21:06:59.802Z,43.42
2019-04-29T21:09:26.607Z,41.63
2019-04-29T21:12:15.706Z,42.23
2019-04-29T21:14:48.877Z,42.75
2019-04-29T21:17:28.610Z,43.75
2019-04-29T21:19:49.535Z,44.38
2019-04-29T21:22:22.429Z,45.05
2019-04-29T21:24:49.510Z,45.08
2019-04-29T21:27:22.617Z,45.88
2019-04-29T21:29:54.091Z,45.38
2019-04-29T21:32:20.265Z,46.90
2019-04-29T21:35:05.757Z,46.25
2019-04-29T21:37:43.916Z,45.55
2019-04-29T21:40:18.734Z,46.25
2019-04-29T21:42:51.046Z,47.23
2019-04-29T21:45:19.800Z,47.48
2019-04-29T21:47:53.458Z,46.68
2019-04-29T21:50:22.066Z,45.65
2019-04-29T21:52:55.317Z,47.80
2019-04-29T21:55:27.821Z,47.23
2019-04-29T21:57:54.485Z,47.67
2019-04-29T22:00:24.449Z,48.30
2019-04-29T22:02:55.942Z,47.62
2019-04-29T22:05:25.156Z,48.52
2019-04-29T22:07:54.267Z,50.28
2019-04-29T22:10:28.939Z,47.00
2019-04-29T22:13:01.932Z,47.13
2019-04-29T22:15:37.245Z,49.93
2019-04-29T22:18:07.265Z,47.85
2019-04-29T22:20:41.954Z,51.45
2019-04-29T22:23:08.464Z,48.78
2019-04-29T22:25:41.191Z,49.25
2019-04-29T22:28:10.819Z,49.27
2019-04-29T22:30:40.744Z,50.15
2019-04-29T22:33:09.336Z,49.33
2019-04-29T22:35:40.813Z,50.23
2019-04-29T22:38:12.737Z,51.77
2019-04-29T22:40:42.811Z,49.30
2019-04-29T22:43:18.038Z,49.88
2019-04-29T22:45:48.283Z,49.20
2019-04-29T22:48:19.759Z,51.85
2019-04-29T22:50:49.080Z,52.33
2019-04-29T22:53:19.408Z,50.00
2019-04-29T22:55:47.988Z,51.88
2019-04-29T22:58:18.138Z,51.25
2019-04-29T23:00:46.889Z,51.95
2019-04-29T23:03:18.647Z,52.43
2019-04-29T23:05:50.810Z,52.83
2019-04-29T23:08:25.187Z,52.70
2019-04-29T23:10:59.764Z,53.00
2019-04-29T23:13:31.106Z,53.55
2019-04-29T23:16:02.254Z,54.80
2019-04-29T23:18:42.135Z,51.77
2019-04-29T23:21:42.406Z,54.50
2019-04-29T23:24:18.434Z,54.58
2019-04-29T23:26:50.454Z,54.42
2019-04-29T23:29:19.060Z,54.38
2019-04-29T23:31:47.668Z,51.92
2019-04-29T23:34:18.247Z,55.10
2019-04-29T23:36:48.989Z,53.35
2019-04-29T23:39:17.666Z,52.90
2019-04-29T23:41:46.244Z,52.10
2019-04-29T23:44:19.966Z,50.75
2019-04-29T23:49:19.059Z,50.60
2019-04-29T23:51:47.889Z,53.95
2019-04-29T23:54:16.652Z,49.55
2019-04-29T23:57:06.131Z,52.50
2019-04-29T23:59:36.883Z,52.13
